Terminal Aerodrome Forecast
Issued by NWS Rapid City, SD

Home | Current Version | Previous Version | Graphics & Text | Print | Product List | Glossary On
Versions: 1 2 3 4 5 6 7 8 9 10 11 12 13 14 15 16 17 18 19 20
324
FTUS43 KUNR 191720
TAFRAP
TAF
KRAP 191720Z 1918/2018 35018G28KT P6SM SCT120
     FM200200 04009KT P6SM SCT100
     FM200600 VRB05KT P6SM SCT100=

USA.gov is the U.S. government's official web portal to all federal, state and local government web resources and services.